sensor_id;sensor_type;location;lat;lon;timestamp;P1;durP1;ratioP1;P2;durP2;ratioP2
21878;SDS011;27908;42.708;23.278;2022-07-29T00:02:20;15.57;;;9.30;;
21878;SDS011;27908;42.708;23.278;2022-07-29T00:04:46;17.15;;;10.35;;
21878;SDS011;27908;42.708;23.278;2022-07-29T00:07:11;18.93;;;9.80;;
21878;SDS011;27908;42.708;23.278;2022-07-29T00:09:36;16.03;;;9.87;;
21878;SDS011;27908;42.708;23.278;2022-07-29T00:12:02;18.13;;;10.27;;
21878;SDS011;27908;42.708;23.278;2022-07-29T00:14:28;19.15;;;10.10;;
21878;SDS011;27908;42.708;23.278;2022-07-29T00:16:54;17.38;;;10.38;;
21878;SDS011;27908;42.708;23.278;2022-07-29T00:19:19;16.93;;;10.47;;
21878;SDS011;27908;42.708;23.278;2022-07-29T00:21:45;16.13;;;9.53;;
21878;SDS011;27908;42.708;23.278;2022-07-29T00:24:10;18.15;;;9.90;;
21878;SDS011;27908;42.708;23.278;2022-07-29T00:26:35;15.10;;;9.33;;
21878;SDS011;27908;42.708;23.278;2022-07-29T00:29:02;14.63;;;9.43;;
21878;SDS011;27908;42.708;23.278;2022-07-29T00:31:28;16.88;;;9.85;;
21878;SDS011;27908;42.708;23.278;2022-07-29T00:33:54;16.52;;;10.02;;
21878;SDS011;27908;42.708;23.278;2022-07-29T00:36:20;18.90;;;11.17;;
21878;SDS011;27908;42.708;23.278;2022-07-29T00:38:49;18.38;;;11.20;;
21878;SDS011;27908;42.708;23.278;2022-07-29T00:41:16;20.77;;;11.32;;
21878;SDS011;27908;42.708;23.278;2022-07-29T00:43:42;20.73;;;11.60;;
21878;SDS011;27908;42.708;23.278;2022-07-29T00:46:08;19.02;;;11.57;;
21878;SDS011;27908;42.708;23.278;2022-07-29T00:48:34;19.90;;;11.90;;
21878;SDS011;27908;42.708;23.278;2022-07-29T00:50:59;17.87;;;10.90;;
21878;SDS011;27908;42.708;23.278;2022-07-29T00:53:27;20.67;;;11.43;;
21878;SDS011;27908;42.708;23.278;2022-07-29T00:55:56;24.23;;;12.40;;
21878;SDS011;27908;42.708;23.278;2022-07-29T00:58:23;18.98;;;11.32;;
21878;SDS011;27908;42.708;23.278;2022-07-29T01:00:49;18.40;;;11.00;;
21878;SDS011;27908;42.708;23.278;2022-07-29T01:03:15;19.90;;;10.88;;
21878;SDS011;27908;42.708;23.278;2022-07-29T01:05:41;18.17;;;11.70;;
21878;SDS011;27908;42.708;23.278;2022-07-29T01:08:09;20.10;;;11.98;;
21878;SDS011;27908;42.708;23.278;2022-07-29T01:10:37;18.90;;;10.95;;
21878;SDS011;27908;42.708;23.278;2022-07-29T01:13:05;19.43;;;11.50;;
21878;SDS011;27908;42.708;23.278;2022-07-29T01:15:33;18.42;;;11.07;;
21878;SDS011;27908;42.708;23.278;2022-07-29T01:18:07;18.60;;;10.93;;
21878;SDS011;27908;42.708;23.278;2022-07-29T01:34:46;18.63;;;10.93;;
21878;SDS011;27908;42.708;23.278;2022-07-29T01:37:18;18.98;;;11.10;;
21878;SDS011;27908;42.708;23.278;2022-07-29T01:40:04;19.33;;;10.87;;
21878;SDS011;27908;42.708;23.278;2022-07-29T01:42:38;18.70;;;11.27;;
21878;SDS011;27908;42.708;23.278;2022-07-29T01:45:14;20.75;;;11.05;;
21878;SDS011;27908;42.708;23.278;2022-07-29T01:47:44;25.20;;;11.70;;
21878;SDS011;27908;42.708;23.278;2022-07-29T01:50:19;17.77;;;11.20;;
21878;SDS011;27908;42.708;23.278;2022-07-29T01:52:56;20.33;;;11.70;;
21878;SDS011;27908;42.708;23.278;2022-07-29T01:55:25;18.65;;;10.80;;
21878;SDS011;27908;42.708;23.278;2022-07-29T01:57:56;19.00;;;11.35;;
21878;SDS011;27908;42.708;23.278;2022-07-29T02:00:23;18.95;;;10.82;;
21878;SDS011;27908;42.708;23.278;2022-07-29T02:02:51;18.27;;;11.07;;
21878;SDS011;27908;42.708;23.278;2022-07-29T02:05:20;20.07;;;10.80;;
21878;SDS011;27908;42.708;23.278;2022-07-29T02:07:48;18.38;;;11.00;;
21878;SDS011;27908;42.708;23.278;2022-07-29T02:10:16;17.77;;;10.77;;
21878;SDS011;27908;42.708;23.278;2022-07-29T02:12:46;19.33;;;11.07;;
21878;SDS011;27908;42.708;23.278;2022-07-29T02:15:14;19.50;;;11.40;;
21878;SDS011;27908;42.708;23.278;2022-07-29T02:17:43;17.73;;;11.20;;
21878;SDS011;27908;42.708;23.278;2022-07-29T02:20:13;17.83;;;10.95;;
21878;SDS011;27908;42.708;23.278;2022-07-29T02:22:41;20.02;;;10.98;;
21878;SDS011;27908;42.708;23.278;2022-07-29T02:25:09;21.05;;;11.02;;
21878;SDS011;27908;42.708;23.278;2022-07-29T02:27:54;19.27;;;11.02;;
21878;SDS011;27908;42.708;23.278;2022-07-29T02:30:21;19.07;;;10.93;;
21878;SDS011;27908;42.708;23.278;2022-07-29T02:32:49;18.80;;;11.23;;
21878;SDS011;27908;42.708;23.278;2022-07-29T02:35:16;19.45;;;11.48;;
21878;SDS011;27908;42.708;23.278;2022-07-29T02:37:43;20.40;;;10.88;;
21878;SDS011;27908;42.708;23.278;2022-07-29T02:40:30;18.80;;;11.20;;
21878;SDS011;27908;42.708;23.278;2022-07-29T02:42:57;23.07;;;11.40;;
21878;SDS011;27908;42.708;23.278;2022-07-29T02:45:23;21.48;;;10.98;;
21878;SDS011;27908;42.708;23.278;2022-07-29T02:47:49;20.95;;;11.63;;
21878;SDS011;27908;42.708;23.278;2022-07-29T02:50:17;22.10;;;11.73;;
21878;SDS011;27908;42.708;23.278;2022-07-29T02:53:02;19.20;;;11.33;;
21878;SDS011;27908;42.708;23.278;2022-07-29T02:55:45;17.08;;;10.73;;
21878;SDS011;27908;42.708;23.278;2022-07-29T02:58:27;18.30;;;11.18;;
21878;SDS011;27908;42.708;23.278;2022-07-29T03:00:59;21.23;;;11.77;;
21878;SDS011;27908;42.708;23.278;2022-07-29T03:03:36;19.02;;;11.10;;
21878;SDS011;27908;42.708;23.278;2022-07-29T03:06:03;19.13;;;11.77;;
21878;SDS011;27908;42.708;23.278;2022-07-29T03:08:29;22.25;;;12.68;;
21878;SDS011;27908;42.708;23.278;2022-07-29T03:10:57;19.40;;;12.13;;
21878;SDS011;27908;42.708;23.278;2022-07-29T03:13:23;21.77;;;12.50;;
21878;SDS011;27908;42.708;23.278;2022-07-29T03:15:49;21.57;;;12.27;;
21878;SDS011;27908;42.708;23.278;2022-07-29T03:18:15;21.00;;;13.48;;
21878;SDS011;27908;42.708;23.278;2022-07-29T03:20:40;23.37;;;14.10;;
21878;SDS011;27908;42.708;23.278;2022-07-29T03:23:10;23.20;;;13.25;;
21878;SDS011;27908;42.708;23.278;2022-07-29T03:25:35;21.50;;;13.15;;
21878;SDS011;27908;42.708;23.278;2022-07-29T03:28:01;24.00;;;14.23;;
21878;SDS011;27908;42.708;23.278;2022-07-29T03:30:27;23.40;;;13.67;;
21878;SDS011;27908;42.708;23.278;2022-07-29T03:32:55;28.55;;;14.35;;
21878;SDS011;27908;42.708;23.278;2022-07-29T03:35:21;22.50;;;14.10;;
21878;SDS011;27908;42.708;23.278;2022-07-29T03:37:46;25.40;;;13.77;;
21878;SDS011;27908;42.708;23.278;2022-07-29T03:40:13;24.48;;;13.57;;
21878;SDS011;27908;42.708;23.278;2022-07-29T03:42:43;23.98;;;13.77;;
21878;SDS011;27908;42.708;23.278;2022-07-29T03:45:12;25.83;;;14.27;;
21878;SDS011;27908;42.708;23.278;2022-07-29T03:47:44;24.30;;;13.20;;
21878;SDS011;27908;42.708;23.278;2022-07-29T03:50:14;23.02;;;13.82;;
21878;SDS011;27908;42.708;23.278;2022-07-29T03:52:40;21.73;;;12.82;;
21878;SDS011;27908;42.708;23.278;2022-07-29T03:55:06;22.15;;;13.05;;
21878;SDS011;27908;42.708;23.278;2022-07-29T03:57:34;22.48;;;13.80;;
21878;SDS011;27908;42.708;23.278;2022-07-29T04:00:01;37.33;;;20.03;;
21878;SDS011;27908;42.708;23.278;2022-07-29T04:02:29;21.63;;;12.20;;
21878;SDS011;27908;42.708;23.278;2022-07-29T04:04:56;20.70;;;11.57;;
21878;SDS011;27908;42.708;23.278;2022-07-29T04:07:22;21.47;;;12.70;;
21878;SDS011;27908;42.708;23.278;2022-07-29T04:09:47;27.57;;;16.00;;
21878;SDS011;27908;42.708;23.278;2022-07-29T04:12:12;30.02;;;17.98;;
21878;SDS011;27908;42.708;23.278;2022-07-29T04:14:38;24.40;;;12.87;;
21878;SDS011;27908;42.708;23.278;2022-07-29T04:17:04;19.37;;;11.13;;
21878;SDS011;27908;42.708;23.278;2022-07-29T04:19:30;19.38;;;11.50;;
21878;SDS011;27908;42.708;23.278;2022-07-29T04:21:57;19.65;;;11.93;;
21878;SDS011;27908;42.708;23.278;2022-07-29T04:24:23;19.13;;;10.63;;
21878;SDS011;27908;42.708;23.278;2022-07-29T04:26:48;22.40;;;10.70;;
21878;SDS011;27908;42.708;23.278;2022-07-29T04:29:14;21.30;;;11.57;;
21878;SDS011;27908;42.708;23.278;2022-07-29T04:31:40;21.13;;;11.50;;
21878;SDS011;27908;42.708;23.278;2022-07-29T04:34:06;20.10;;;11.37;;
21878;SDS011;27908;42.708;23.278;2022-07-29T04:36:32;23.42;;;12.80;;
21878;SDS011;27908;42.708;23.278;2022-07-29T04:38:57;21.35;;;12.75;;
21878;SDS011;27908;42.708;23.278;2022-07-29T04:41:23;22.53;;;12.33;;
21878;SDS011;27908;42.708;23.278;2022-07-29T04:43:48;20.63;;;11.63;;
21878;SDS011;27908;42.708;23.278;2022-07-29T04:46:14;22.05;;;13.40;;
21878;SDS011;27908;42.708;23.278;2022-07-29T04:48:39;22.97;;;12.10;;
21878;SDS011;27908;42.708;23.278;2022-07-29T04:51:05;19.40;;;11.23;;
21878;SDS011;27908;42.708;23.278;2022-07-29T04:53:30;19.63;;;11.77;;
21878;SDS011;27908;42.708;23.278;2022-07-29T04:55:56;18.30;;;10.87;;
21878;SDS011;27908;42.708;23.278;2022-07-29T04:58:21;18.80;;;11.23;;
21878;SDS011;27908;42.708;23.278;2022-07-29T05:00:48;23.92;;;12.00;;
21878;SDS011;27908;42.708;23.278;2022-07-29T05:03:14;22.02;;;11.55;;
21878;SDS011;27908;42.708;23.278;2022-07-29T05:05:39;19.13;;;10.93;;
21878;SDS011;27908;42.708;23.278;2022-07-29T05:08:05;20.48;;;11.98;;
21878;SDS011;27908;42.708;23.278;2022-07-29T05:10:31;21.57;;;12.50;;
21878;SDS011;27908;42.708;23.278;2022-07-29T05:12:57;22.08;;;12.35;;
21878;SDS011;27908;42.708;23.278;2022-07-29T05:15:23;22.00;;;12.25;;
21878;SDS011;27908;42.708;23.278;2022-07-29T05:17:48;20.17;;;11.97;;
21878;SDS011;27908;42.708;23.278;2022-07-29T05:20:14;22.17;;;12.13;;
21878;SDS011;27908;42.708;23.278;2022-07-29T05:22:39;21.27;;;12.37;;
21878;SDS011;27908;42.708;23.278;2022-07-29T05:25:05;18.88;;;11.40;;
21878;SDS011;27908;42.708;23.278;2022-07-29T05:27:31;20.65;;;11.82;;
21878;SDS011;27908;42.708;23.278;2022-07-29T05:29:56;21.23;;;11.77;;
21878;SDS011;27908;42.708;23.278;2022-07-29T05:32:22;21.27;;;11.83;;
21878;SDS011;27908;42.708;23.278;2022-07-29T05:34:47;23.47;;;12.17;;
21878;SDS011;27908;42.708;23.278;2022-07-29T05:37:12;19.53;;;12.20;;
21878;SDS011;27908;42.708;23.278;2022-07-29T05:39:38;21.27;;;12.40;;
21878;SDS011;27908;42.708;23.278;2022-07-29T05:42:07;23.10;;;12.80;;
21878;SDS011;27908;42.708;23.278;2022-07-29T05:44:36;21.67;;;12.30;;
21878;SDS011;27908;42.708;23.278;2022-07-29T05:47:02;20.55;;;11.98;;
21878;SDS011;27908;42.708;23.278;2022-07-29T05:49:28;24.93;;;11.60;;
21878;SDS011;27908;42.708;23.278;2022-07-29T05:51:53;21.85;;;11.30;;
21878;SDS011;27908;42.708;23.278;2022-07-29T05:54:19;20.80;;;10.93;;
21878;SDS011;27908;42.708;23.278;2022-07-29T05:56:44;18.83;;;11.30;;
21878;SDS011;27908;42.708;23.278;2022-07-29T05:59:09;21.47;;;12.17;;
21878;SDS011;27908;42.708;23.278;2022-07-29T06:01:35;20.80;;;11.10;;
21878;SDS011;27908;42.708;23.278;2022-07-29T06:04:04;20.38;;;11.18;;
21878;SDS011;27908;42.708;23.278;2022-07-29T06:06:30;21.60;;;10.57;;
21878;SDS011;27908;42.708;23.278;2022-07-29T06:08:55;22.20;;;11.60;;
21878;SDS011;27908;42.708;23.278;2022-07-29T06:11:21;20.07;;;10.83;;
21878;SDS011;27908;42.708;23.278;2022-07-29T06:13:46;16.08;;;9.85;;
21878;SDS011;27908;42.708;23.278;2022-07-29T06:16:12;17.50;;;9.50;;
21878;SDS011;27908;42.708;23.278;2022-07-29T06:18:37;17.70;;;9.13;;
21878;SDS011;27908;42.708;23.278;2022-07-29T06:21:06;18.77;;;10.43;;
21878;SDS011;27908;42.708;23.278;2022-07-29T06:23:33;15.10;;;8.43;;
21878;SDS011;27908;42.708;23.278;2022-07-29T06:25:59;14.40;;;6.70;;
21878;SDS011;27908;42.708;23.278;2022-07-29T06:28:25;12.10;;;7.00;;
21878;SDS011;27908;42.708;23.278;2022-07-29T06:30:51;15.53;;;6.53;;
21878;SDS011;27908;42.708;23.278;2022-07-29T06:33:17;11.43;;;5.82;;
21878;SDS011;27908;42.708;23.278;2022-07-29T06:35:43;11.45;;;6.22;;
21878;SDS011;27908;42.708;23.278;2022-07-29T06:38:09;11.33;;;5.63;;
21878;SDS011;27908;42.708;23.278;2022-07-29T06:40:36;11.70;;;5.50;;
21878;SDS011;27908;42.708;23.278;2022-07-29T06:43:20;9.95;;;5.50;;
21878;SDS011;27908;42.708;23.278;2022-07-29T06:45:45;10.47;;;6.10;;
21878;SDS011;27908;42.708;23.278;2022-07-29T06:48:11;10.23;;;5.20;;
21878;SDS011;27908;42.708;23.278;2022-07-29T06:50:36;10.17;;;5.40;;
21878;SDS011;27908;42.708;23.278;2022-07-29T06:53:02;11.97;;;5.20;;
21878;SDS011;27908;42.708;23.278;2022-07-29T06:55:28;9.70;;;5.40;;
21878;SDS011;27908;42.708;23.278;2022-07-29T06:57:54;10.70;;;5.30;;
21878;SDS011;27908;42.708;23.278;2022-07-29T07:00:19;10.32;;;5.18;;
21878;SDS011;27908;42.708;23.278;2022-07-29T07:02:45;11.37;;;5.63;;
21878;SDS011;27908;42.708;23.278;2022-07-29T07:05:10;11.63;;;5.50;;
21878;SDS011;27908;42.708;23.278;2022-07-29T07:07:35;7.83;;;4.30;;
21878;SDS011;27908;42.708;23.278;2022-07-29T07:10:01;8.88;;;5.20;;
21878;SDS011;27908;42.708;23.278;2022-07-29T07:12:26;9.07;;;5.20;;
21878;SDS011;27908;42.708;23.278;2022-07-29T07:14:52;9.63;;;4.70;;
21878;SDS011;27908;42.708;23.278;2022-07-29T07:17:17;10.07;;;5.00;;
21878;SDS011;27908;42.708;23.278;2022-07-29T07:19:43;10.60;;;5.00;;
21878;SDS011;27908;42.708;23.278;2022-07-29T07:22:10;9.75;;;4.53;;
21878;SDS011;27908;42.708;23.278;2022-07-29T07:24:35;9.40;;;4.60;;
21878;SDS011;27908;42.708;23.278;2022-07-29T07:27:00;11.23;;;5.07;;
21878;SDS011;27908;42.708;23.278;2022-07-29T07:29:26;9.48;;;5.00;;
21878;SDS011;27908;42.708;23.278;2022-07-29T07:31:52;13.43;;;4.50;;
21878;SDS011;27908;42.708;23.278;2022-07-29T07:34:17;10.50;;;4.30;;
21878;SDS011;27908;42.708;23.278;2022-07-29T07:36:43;12.48;;;4.63;;
21878;SDS011;27908;42.708;23.278;2022-07-29T07:39:08;8.70;;;4.43;;
21878;SDS011;27908;42.708;23.278;2022-07-29T07:41:33;9.53;;;4.30;;
21878;SDS011;27908;42.708;23.278;2022-07-29T07:43:59;8.20;;;4.67;;
21878;SDS011;27908;42.708;23.278;2022-07-29T07:46:25;11.32;;;4.90;;
21878;SDS011;27908;42.708;23.278;2022-07-29T07:48:50;9.50;;;4.60;;
21878;SDS011;27908;42.708;23.278;2022-07-29T07:51:17;12.32;;;4.57;;
21878;SDS011;27908;42.708;23.278;2022-07-29T07:53:42;9.30;;;4.50;;
21878;SDS011;27908;42.708;23.278;2022-07-29T07:56:09;9.20;;;4.30;;
21878;SDS011;27908;42.708;23.278;2022-07-29T07:58:35;9.43;;;4.60;;
21878;SDS011;27908;42.708;23.278;2022-07-29T08:01:01;9.47;;;4.60;;
21878;SDS011;27908;42.708;23.278;2022-07-29T08:03:26;12.73;;;4.90;;
21878;SDS011;27908;42.708;23.278;2022-07-29T08:05:52;8.30;;;4.30;;
21878;SDS011;27908;42.708;23.278;2022-07-29T08:08:19;11.88;;;4.15;;
21878;SDS011;27908;42.708;23.278;2022-07-29T08:10:45;7.50;;;3.85;;
21878;SDS011;27908;42.708;23.278;2022-07-29T08:13:25;10.13;;;4.23;;
21878;SDS011;27908;42.708;23.278;2022-07-29T08:15:55;8.52;;;4.38;;
21878;SDS011;27908;42.708;23.278;2022-07-29T08:18:36;8.80;;;4.20;;
21878;SDS011;27908;42.708;23.278;2022-07-29T08:21:02;9.60;;;4.22;;
21878;SDS011;27908;42.708;23.278;2022-07-29T08:23:27;10.57;;;4.40;;
21878;SDS011;27908;42.708;23.278;2022-07-29T08:26:00;9.13;;;4.18;;
21878;SDS011;27908;42.708;23.278;2022-07-29T08:28:25;9.23;;;3.90;;
21878;SDS011;27908;42.708;23.278;2022-07-29T08:30:51;8.60;;;4.03;;
21878;SDS011;27908;42.708;23.278;2022-07-29T08:33:16;10.38;;;4.00;;
21878;SDS011;27908;42.708;23.278;2022-07-29T08:35:43;7.47;;;3.80;;
21878;SDS011;27908;42.708;23.278;2022-07-29T08:38:08;9.55;;;3.72;;
21878;SDS011;27908;42.708;23.278;2022-07-29T08:40:33;8.07;;;4.17;;
21878;SDS011;27908;42.708;23.278;2022-07-29T08:43:03;8.07;;;3.60;;
21878;SDS011;27908;42.708;23.278;2022-07-29T08:45:41;8.45;;;4.15;;
21878;SDS011;27908;42.708;23.278;2022-07-29T08:48:09;7.95;;;3.78;;
21878;SDS011;27908;42.708;23.278;2022-07-29T08:50:36;9.50;;;3.83;;
21878;SDS011;27908;42.708;23.278;2022-07-29T08:53:03;7.23;;;3.97;;
21878;SDS011;27908;42.708;23.278;2022-07-29T08:55:32;11.60;;;4.15;;
21878;SDS011;27908;42.708;23.278;2022-07-29T08:57:58;7.22;;;3.45;;
21878;SDS011;27908;42.708;23.278;2022-07-29T09:00:25;9.35;;;3.40;;
21878;SDS011;27908;42.708;23.278;2022-07-29T09:02:55;10.50;;;3.70;;
21878;SDS011;27908;42.708;23.278;2022-07-29T09:05:22;7.40;;;3.17;;
21878;SDS011;27908;42.708;23.278;2022-07-29T09:07:49;8.38;;;3.72;;
21878;SDS011;27908;42.708;23.278;2022-07-29T09:10:15;7.53;;;3.35;;
21878;SDS011;27908;42.708;23.278;2022-07-29T09:12:41;8.38;;;3.50;;
21878;SDS011;27908;42.708;23.278;2022-07-29T09:15:07;8.43;;;3.87;;
21878;SDS011;27908;42.708;23.278;2022-07-29T09:17:43;7.07;;;3.40;;
21878;SDS011;27908;42.708;23.278;2022-07-29T09:20:11;10.68;;;3.75;;
21878;SDS011;27908;42.708;23.278;2022-07-29T09:22:38;9.07;;;3.97;;
21878;SDS011;27908;42.708;23.278;2022-07-29T09:25:03;8.17;;;3.93;;
21878;SDS011;27908;42.708;23.278;2022-07-29T09:27:29;8.82;;;3.90;;
21878;SDS011;27908;42.708;23.278;2022-07-29T09:29:58;8.43;;;3.40;;
21878;SDS011;27908;42.708;23.278;2022-07-29T09:32:25;7.55;;;3.63;;
21878;SDS011;27908;42.708;23.278;2022-07-29T09:35:13;7.55;;;3.55;;
21878;SDS011;27908;42.708;23.278;2022-07-29T09:37:44;7.07;;;3.60;;
21878;SDS011;27908;42.708;23.278;2022-07-29T09:40:16;8.70;;;3.95;;
21878;SDS011;27908;42.708;23.278;2022-07-29T09:42:44;7.32;;;3.50;;
21878;SDS011;27908;42.708;23.278;2022-07-29T09:45:11;8.73;;;3.35;;
21878;SDS011;27908;42.708;23.278;2022-07-29T09:47:41;7.22;;;3.63;;
21878;SDS011;27908;42.708;23.278;2022-07-29T09:50:12;7.90;;;3.70;;
21878;SDS011;27908;42.708;23.278;2022-07-29T09:52:44;8.07;;;4.15;;
21878;SDS011;27908;42.708;23.278;2022-07-29T09:55:11;9.70;;;4.68;;
21878;SDS011;27908;42.708;23.278;2022-07-29T09:57:37;8.57;;;4.03;;
21878;SDS011;27908;42.708;23.278;2022-07-29T10:00:04;8.37;;;3.60;;
21878;SDS011;27908;42.708;23.278;2022-07-29T10:02:32;7.75;;;3.70;;
21878;SDS011;27908;42.708;23.278;2022-07-29T10:05:00;9.25;;;3.63;;
21878;SDS011;27908;42.708;23.278;2022-07-29T10:07:42;10.40;;;4.18;;
21878;SDS011;27908;42.708;23.278;2022-07-29T10:10:25;7.25;;;3.63;;
21878;SDS011;27908;42.708;23.278;2022-07-29T10:12:56;7.83;;;3.73;;
21878;SDS011;27908;42.708;23.278;2022-07-29T10:15:23;11.15;;;4.13;;
21878;SDS011;27908;42.708;23.278;2022-07-29T10:17:51;9.75;;;3.92;;
21878;SDS011;27908;42.708;23.278;2022-07-29T10:20:18;10.13;;;3.80;;
21878;SDS011;27908;42.708;23.278;2022-07-29T10:22:46;8.45;;;3.70;;
21878;SDS011;27908;42.708;23.278;2022-07-29T10:25:12;8.80;;;3.90;;
21878;SDS011;27908;42.708;23.278;2022-07-29T10:27:39;9.00;;;3.83;;
21878;SDS011;27908;42.708;23.278;2022-07-29T10:30:05;9.40;;;4.10;;
21878;SDS011;27908;42.708;23.278;2022-07-29T10:40:49;11.65;;;3.97;;
21878;SDS011;27908;42.708;23.278;2022-07-29T10:43:40;9.05;;;4.05;;
21878;SDS011;27908;42.708;23.278;2022-07-29T10:46:08;7.25;;;3.17;;
21878;SDS011;27908;42.708;23.278;2022-07-29T10:48:35;8.60;;;3.13;;
21878;SDS011;27908;42.708;23.278;2022-07-29T10:51:02;7.10;;;3.70;;
21878;SDS011;27908;42.708;23.278;2022-07-29T11:01:48;7.68;;;3.90;;
21878;SDS011;27908;42.708;23.278;2022-07-29T11:04:15;10.80;;;3.97;;
21878;SDS011;27908;42.708;23.278;2022-07-29T11:09:35;10.60;;;3.70;;
21878;SDS011;27908;42.708;23.278;2022-07-29T11:12:00;8.43;;;3.80;;
21878;SDS011;27908;42.708;23.278;2022-07-29T11:17:17;9.50;;;3.60;;
21878;SDS011;27908;42.708;23.278;2022-07-29T11:19:42;7.05;;;3.70;;
21878;SDS011;27908;42.708;23.278;2022-07-29T11:22:09;7.32;;;3.58;;
21878;SDS011;27908;42.708;23.278;2022-07-29T11:24:35;7.83;;;3.53;;
21878;SDS011;27908;42.708;23.278;2022-07-29T11:29:51;8.65;;;3.58;;
21878;SDS011;27908;42.708;23.278;2022-07-29T11:32:21;8.00;;;3.72;;
21878;SDS011;27908;42.708;23.278;2022-07-29T11:34:48;9.60;;;3.90;;
21878;SDS011;27908;42.708;23.278;2022-07-29T11:37:15;7.87;;;3.53;;
21878;SDS011;27908;42.708;23.278;2022-07-29T11:39:46;6.35;;;3.10;;
21878;SDS011;27908;42.708;23.278;2022-07-29T11:50:11;7.53;;;3.93;;
21878;SDS011;27908;42.708;23.278;2022-07-29T11:52:41;8.68;;;4.10;;
21878;SDS011;27908;42.708;23.278;2022-07-29T11:55:11;7.50;;;3.67;;
21878;SDS011;27908;42.708;23.278;2022-07-29T12:00:31;11.13;;;3.72;;
21878;SDS011;27908;42.708;23.278;2022-07-29T12:03:08;9.80;;;3.67;;
21878;SDS011;27908;42.708;23.278;2022-07-29T12:05:37;8.82;;;4.00;;
21878;SDS011;27908;42.708;23.278;2022-07-29T12:08:09;7.20;;;3.83;;
21878;SDS011;27908;42.708;23.278;2022-07-29T12:10:46;9.23;;;3.67;;
21878;SDS011;27908;42.708;23.278;2022-07-29T12:13:15;8.30;;;3.97;;
21878;SDS011;27908;42.708;23.278;2022-07-29T12:15:42;8.50;;;3.73;;
21878;SDS011;27908;42.708;23.278;2022-07-29T12:18:18;7.75;;;3.83;;
21878;SDS011;27908;42.708;23.278;2022-07-29T12:20:45;8.30;;;3.83;;
21878;SDS011;27908;42.708;23.278;2022-07-29T12:23:11;9.45;;;3.70;;
21878;SDS011;27908;42.708;23.278;2022-07-29T12:25:37;8.10;;;4.20;;
21878;SDS011;27908;42.708;23.278;2022-07-29T12:28:05;7.82;;;4.15;;
21878;SDS011;27908;42.708;23.278;2022-07-29T12:30:36;10.02;;;4.13;;
21878;SDS011;27908;42.708;23.278;2022-07-29T12:33:15;8.85;;;4.35;;
21878;SDS011;27908;42.708;23.278;2022-07-29T12:35:49;8.40;;;4.20;;
21878;SDS011;27908;42.708;23.278;2022-07-29T12:38:17;8.50;;;3.57;;
21878;SDS011;27908;42.708;23.278;2022-07-29T12:40:43;7.07;;;3.67;;
21878;SDS011;27908;42.708;23.278;2022-07-29T12:45:40;8.80;;;3.88;;
21878;SDS011;27908;42.708;23.278;2022-07-29T12:48:07;7.20;;;3.95;;
21878;SDS011;27908;42.708;23.278;2022-07-29T12:50:36;9.10;;;3.93;;
21878;SDS011;27908;42.708;23.278;2022-07-29T12:53:16;8.73;;;4.07;;
21878;SDS011;27908;42.708;23.278;2022-07-29T12:55:45;8.13;;;3.80;;
21878;SDS011;27908;42.708;23.278;2022-07-29T13:01:12;9.93;;;3.85;;
21878;SDS011;27908;42.708;23.278;2022-07-29T13:03:44;8.23;;;4.30;;
21878;SDS011;27908;42.708;23.278;2022-07-29T13:08:58;7.33;;;4.10;;
21878;SDS011;27908;42.708;23.278;2022-07-29T13:11:36;8.00;;;4.38;;
21878;SDS011;27908;42.708;23.278;2022-07-29T13:14:06;8.93;;;4.60;;
21878;SDS011;27908;42.708;23.278;2022-07-29T13:16:34;9.48;;;4.63;;
21878;SDS011;27908;42.708;23.278;2022-07-29T13:19:07;9.75;;;4.70;;
21878;SDS011;27908;42.708;23.278;2022-07-29T13:21:37;8.83;;;4.50;;
21878;SDS011;27908;42.708;23.278;2022-07-29T13:24:03;8.75;;;4.28;;
21878;SDS011;27908;42.708;23.278;2022-07-29T13:26:32;8.32;;;4.40;;
21878;SDS011;27908;42.708;23.278;2022-07-29T13:28:57;7.70;;;4.43;;
21878;SDS011;27908;42.708;23.278;2022-07-29T13:31:23;10.13;;;4.63;;
21878;SDS011;27908;42.708;23.278;2022-07-29T13:33:49;7.73;;;4.60;;
21878;SDS011;27908;42.708;23.278;2022-07-29T13:36:14;7.60;;;4.32;;
21878;SDS011;27908;42.708;23.278;2022-07-29T13:38:40;7.87;;;3.80;;
21878;SDS011;27908;42.708;23.278;2022-07-29T13:41:05;8.00;;;4.03;;
21878;SDS011;27908;42.708;23.278;2022-07-29T13:43:31;7.63;;;3.95;;
21878;SDS011;27908;42.708;23.278;2022-07-29T13:45:56;9.13;;;3.77;;
21878;SDS011;27908;42.708;23.278;2022-07-29T13:48:22;7.85;;;4.20;;
21878;SDS011;27908;42.708;23.278;2022-07-29T13:50:47;8.67;;;4.30;;
21878;SDS011;27908;42.708;23.278;2022-07-29T13:53:14;7.32;;;3.92;;
21878;SDS011;27908;42.708;23.278;2022-07-29T13:55:39;7.63;;;3.90;;
21878;SDS011;27908;42.708;23.278;2022-07-29T13:58:05;7.43;;;3.73;;
21878;SDS011;27908;42.708;23.278;2022-07-29T14:00:30;7.17;;;3.70;;
21878;SDS011;27908;42.708;23.278;2022-07-29T14:02:56;8.48;;;4.00;;
21878;SDS011;27908;42.708;23.278;2022-07-29T14:05:21;7.07;;;3.77;;
21878;SDS011;27908;42.708;23.278;2022-07-29T14:07:47;8.68;;;4.15;;
21878;SDS011;27908;42.708;23.278;2022-07-29T14:10:13;7.07;;;3.40;;
21878;SDS011;27908;42.708;23.278;2022-07-29T14:12:38;7.97;;;3.93;;
21878;SDS011;27908;42.708;23.278;2022-07-29T14:15:04;8.20;;;3.73;;
21878;SDS011;27908;42.708;23.278;2022-07-29T14:17:30;7.05;;;3.60;;
21878;SDS011;27908;42.708;23.278;2022-07-29T14:19:55;7.60;;;3.70;;
21878;SDS011;27908;42.708;23.278;2022-07-29T14:22:21;9.30;;;4.17;;
21878;SDS011;27908;42.708;23.278;2022-07-29T14:24:46;7.88;;;3.95;;
21878;SDS011;27908;42.708;23.278;2022-07-29T14:27:12;8.93;;;4.13;;
21878;SDS011;27908;42.708;23.278;2022-07-29T14:29:37;8.23;;;4.50;;
21878;SDS011;27908;42.708;23.278;2022-07-29T14:32:03;9.40;;;4.35;;
21878;SDS011;27908;42.708;23.278;2022-07-29T14:34:30;8.77;;;4.30;;
21878;SDS011;27908;42.708;23.278;2022-07-29T14:36:55;9.55;;;4.57;;
21878;SDS011;27908;42.708;23.278;2022-07-29T14:39:21;12.30;;;4.30;;
21878;SDS011;27908;42.708;23.278;2022-07-29T14:41:48;8.57;;;4.30;;
21878;SDS011;27908;42.708;23.278;2022-07-29T14:44:14;9.20;;;4.18;;
21878;SDS011;27908;42.708;23.278;2022-07-29T14:46:39;16.83;;;8.37;;
21878;SDS011;27908;42.708;23.278;2022-07-29T14:49:05;14.43;;;10.20;;
21878;SDS011;27908;42.708;23.278;2022-07-29T14:51:31;18.37;;;12.97;;
21878;SDS011;27908;42.708;23.278;2022-07-29T14:53:56;9.25;;;4.05;;
21878;SDS011;27908;42.708;23.278;2022-07-29T14:56:22;12.32;;;8.25;;
21878;SDS011;27908;42.708;23.278;2022-07-29T14:58:48;25.90;;;19.45;;
21878;SDS011;27908;42.708;23.278;2022-07-29T15:01:14;10.30;;;6.90;;
21878;SDS011;27908;42.708;23.278;2022-07-29T15:03:39;7.45;;;4.05;;
21878;SDS011;27908;42.708;23.278;2022-07-29T15:06:05;8.37;;;4.20;;
21878;SDS011;27908;42.708;23.278;2022-07-29T15:08:30;7.30;;;3.90;;
21878;SDS011;27908;42.708;23.278;2022-07-29T15:10:56;8.50;;;3.80;;
21878;SDS011;27908;42.708;23.278;2022-07-29T15:13:24;26.43;;;14.83;;
21878;SDS011;27908;42.708;23.278;2022-07-29T15:15:50;13.73;;;8.02;;
21878;SDS011;27908;42.708;23.278;2022-07-29T15:18:16;11.05;;;5.72;;
21878;SDS011;27908;42.708;23.278;2022-07-29T15:20:42;10.33;;;6.00;;
21878;SDS011;27908;42.708;23.278;2022-07-29T15:23:07;20.42;;;14.30;;